Time;durP1;ratioP1;P1;durP2;ratioP2;P2;SDS_P1;SDS_P2;PMS_P1;PMS_P2;Temp;Humidity;BMP_temperature;BMP_pressure;BME280_temperature;BME280_humidity;BME280_pressure;Samples;Min_cycle;Max_cycle;Signal;HPM_P1;HPM_P2
2023/06/16 00:00:52;;;;;;;2.72;2.33;;;21.60;68.80;;;;;;4190922;28;20044;-60
2023/06/16 00:02:52;;;;;;;4.95;2.45;;;21.60;68.70;;;;;;4176706;28;20090;-59
2023/06/16 00:04:53;;;;;;;3.75;2.45;;;21.60;68.90;;;;;;4188287;28;20111;-60
2023/06/16 00:06:56;;;;;;;5.07;2.28;;;21.60;69.10;;;;;;4171899;28;20036;-60
2023/06/16 00:08:58;;;;;;;3.08;2.40;;;21.60;69.10;;;;;;4176712;28;20061;-59
2023/06/16 00:10:59;;;;;;;5.22;2.90;;;21.60;69.10;;;;;;4169447;28;20392;-59
2023/06/16 00:12:59;;;;;;;3.00;2.25;;;21.60;69.10;;;;;;4194144;28;20036;-59
2023/06/16 00:15:00;;;;;;;3.05;2.22;;;21.60;69.40;;;;;;4193048;28;20444;-60
2023/06/16 00:17:03;;;;;;;2.42;2.22;;;21.60;69.30;;;;;;4184629;28;20056;-59
2023/06/16 00:19:04;;;;;;;3.50;2.33;;;21.50;68.50;;;;;;4185368;28;20035;-59
2023/06/16 00:21:09;;;;;;;6.10;2.63;;;21.50;68.30;;;;;;4179918;28;20056;-59
2023/06/16 00:23:16;;;;;;;3.08;2.25;;;21.50;68.40;;;;;;4171664;28;20037;-60
2023/06/16 00:25:18;;;;;;;3.97;2.70;;;21.40;68.40;;;;;;4161161;28;20038;-61
2023/06/16 00:27:25;;;;;;;3.67;2.43;;;21.30;70.00;;;;;;4165916;28;20037;-60
2023/06/16 00:29:25;;;;;;;3.50;2.20;;;21.30;68.40;;;;;;4194050;28;20033;-60
2023/06/16 00:31:26;;;;;;;3.10;2.20;;;21.20;68.20;;;;;;4188697;28;20041;-60
2023/06/16 00:33:26;;;;;;;2.70;2.30;;;21.20;68.70;;;;;;4173736;28;20059;-60
2023/06/16 00:35:27;;;;;;;4.30;2.70;;;21.10;68.40;;;;;;4186212;28;20044;-60
2023/06/16 00:37:28;;;;;;;5.43;2.50;;;21.00;68.90;;;;;;4175432;28;20095;-60
2023/06/16 00:39:28;;;;;;;3.15;2.30;;;21.00;69.10;;;;;;4172753;28;20089;-59
2023/06/16 00:41:29;;;;;;;2.63;2.20;;;20.90;69.00;;;;;;4174702;28;20480;-59
2023/06/16 00:43:30;;;;;;;4.85;2.40;;;20.90;69.10;;;;;;4174162;28;20447;-59
2023/06/16 00:45:30;;;;;;;5.18;2.75;;;20.90;69.40;;;;;;4170683;28;20044;-60
2023/06/16 00:47:31;;;;;;;2.97;2.50;;;20.90;69.70;;;;;;4171647;28;20033;-59
2023/06/16 00:49:32;;;;;;;3.33;2.45;;;20.90;69.80;;;;;;4181306;28;20039;-60
2023/06/16 00:51:34;;;;;;;3.25;2.30;;;20.90;69.90;;;;;;4182705;28;20507;-59
2023/06/16 00:53:34;;;;;;;7.00;2.80;;;20.90;70.50;;;;;;4175518;28;20037;-60
2023/06/16 00:55:35;;;;;;;3.28;2.40;;;20.90;70.20;;;;;;4189170;28;20059;-60
2023/06/16 00:57:36;;;;;;;4.45;2.65;;;21.00;70.50;;;;;;4187056;28;20448;-60
2023/06/16 00:59:37;;;;;;;3.38;2.65;;;20.90;70.00;;;;;;4191411;28;20071;-60
2023/06/16 01:01:38;;;;;;;4.10;2.30;;;20.90;70.00;;;;;;4192870;28;20105;-59
2023/06/16 01:03:39;;;;;;;6.82;2.60;;;20.90;70.20;;;;;;4171314;28;20049;-60
2023/06/16 01:05:40;;;;;;;4.57;2.58;;;20.90;70.60;;;;;;4167040;28;20051;-62
2023/06/16 01:08:28;;;;;;;3.72;2.47;;;20.90;70.60;;;;;;4169810;28;20520;-60
2023/06/16 01:11:06;;;;;;;4.25;2.72;;;20.90;69.90;;;;;;4141430;28;20039;-60
2023/06/16 01:13:19;;;;;;;3.13;2.15;;;20.90;69.10;;;;;;4172582;28;24991;-60
2023/06/16 01:15:22;;;;;;;;;;;20.80;69.20;;;;;;4160444;28;20396;-59
2023/06/16 01:17:24;;;;;;;5.35;2.40;;;20.70;69.50;;;;;;4180152;28;19971;-59
2023/06/16 01:19:29;;;;;;;4.20;2.80;;;20.60;69.40;;;;;;4178589;28;20419;-59
2023/06/16 01:22:06;;;;;;;4.20;2.78;;;20.30;71.00;;;;;;4181103;28;20267;-60
2023/06/16 01:24:18;;;;;;;5.22;2.72;;;20.10;71.30;;;;;;4163947;28;20035;-59
2023/06/16 01:26:22;;;;;;;3.33;2.47;;;19.90;72.00;;;;;;4173374;28;20151;-60
2023/06/16 01:28:26;;;;;;;3.20;2.50;;;19.80;72.30;;;;;;4185064;28;20603;-59
2023/06/16 01:30:30;;;;;;;6.10;2.85;;;19.70;72.70;;;;;;4166441;28;20044;-60
2023/06/16 01:32:33;;;;;;;3.75;2.65;;;19.70;73.10;;;;;;4177123;28;20068;-59
2023/06/16 01:34:35;;;;;;;3.17;2.40;;;19.60;73.60;;;;;;4181555;28;20446;-59
2023/06/16 01:36:39;;;;;;;4.70;3.08;;;19.70;73.70;;;;;;4184547;28;20058;-59
2023/06/16 01:38:40;;;;;;;10.52;2.75;;;19.80;74.70;;;;;;4176258;28;20060;-59
2023/06/16 01:40:42;;;;;;;3.05;2.42;;;19.80;74.00;;;;;;4186938;28;20040;-60
2023/06/16 01:42:46;;;;;;;3.17;2.23;;;19.80;75.00;;;;;;4194418;28;20032;-60
2023/06/16 01:44:47;;;;;;;5.40;2.60;;;19.90;75.30;;;;;;4184507;28;20260;-59
2023/06/16 01:46:48;;;;;;;3.65;2.55;;;19.90;74.60;;;;;;4174795;28;20075;-61
2023/06/16 01:48:49;;;;;;;4.18;2.45;;;20.00;74.10;;;;;;4171813;28;20087;-60
2023/06/16 01:50:50;;;;;;;3.35;2.60;;;20.00;73.80;;;;;;4172804;28;20024;-60
2023/06/16 01:52:51;;;;;;;3.40;2.67;;;20.00;73.40;;;;;;4181529;28;20029;-60
2023/06/16 01:54:51;;;;;;;3.05;2.47;;;20.10;74.80;;;;;;4178701;28;20380;-60
2023/06/16 01:56:52;;;;;;;4.55;2.70;;;20.10;75.20;;;;;;4192170;28;20017;-59
2023/06/16 01:58:52;;;;;;;3.55;2.40;;;20.10;74.10;;;;;;4179922;28;20036;-59
2023/06/16 02:01:04;;;;;;;3.40;2.78;;;20.10;73.90;;;;;;4179653;28;20017;-59
2023/06/16 02:03:13;;;;;;;3.00;2.38;;;20.20;73.60;;;;;;4180411;28;20048;-60
2023/06/16 02:05:19;;;;;;;3.90;2.50;;;20.20;72.80;;;;;;4178247;28;20029;-59
2023/06/16 02:07:24;;;;;;;3.53;2.58;;;20.20;73.10;;;;;;4174485;28;20048;-60
2023/06/16 02:09:27;;;;;;;4.35;2.28;;;20.20;73.40;;;;;;4181777;28;20119;-59
2023/06/16 02:11:28;;;;;;;3.58;2.33;;;20.20;72.90;;;;;;4184505;28;20119;-60
2023/06/16 02:13:29;;;;;;;3.88;2.63;;;20.20;74.30;;;;;;4192736;28;20505;-59
2023/06/16 02:15:32;;;;;;;3.72;2.70;;;20.20;74.10;;;;;;4183346;28;20032;-59
2023/06/16 02:17:32;;;;;;;3.58;2.90;;;20.20;73.00;;;;;;4178938;28;20036;-60
2023/06/16 02:19:33;;;;;;;2.45;2.15;;;20.20;72.20;;;;;;4179124;28;20082;-59
2023/06/16 02:21:34;;;;;;;4.45;2.63;;;20.20;71.80;;;;;;4175604;28;20499;-59
2023/06/16 02:23:35;;;;;;;3.40;2.72;;;20.20;71.80;;;;;;4179474;28;20123;-60
2023/06/16 02:25:35;;;;;;;5.22;2.45;;;20.10;71.20;;;;;;4181861;28;20132;-59
2023/06/16 02:27:36;;;;;;;2.90;2.22;;;20.10;71.20;;;;;;4179230;28;20395;-59
2023/06/16 02:29:37;;;;;;;3.28;2.50;;;19.90;71.50;;;;;;4189059;28;20029;-60
2023/06/16 02:31:37;;;;;;;3.53;2.60;;;19.80;71.60;;;;;;4179132;28;20050;-59
2023/06/16 02:33:40;;;;;;;3.58;2.80;;;19.70;71.90;;;;;;4180092;28;20498;-59
2023/06/16 02:35:41;;;;;;;4.65;2.42;;;19.60;72.90;;;;;;4183855;28;20037;-60
2023/06/16 02:37:42;;;;;;;4.43;2.58;;;19.60;72.90;;;;;;4182583;28;20032;-58
2023/06/16 02:39:43;;;;;;;4.88;3.03;;;19.60;72.80;;;;;;4190405;28;20036;-59
2023/06/16 02:41:43;;;;;;;4.05;3.00;;;19.60;73.10;;;;;;4189963;28;20040;-64
2023/06/16 02:43:44;;;;;;;2.63;2.20;;;19.60;73.30;;;;;;4183308;28;20033;-60
2023/06/16 02:45:45;;;;;;;2.78;2.10;;;19.60;72.90;;;;;;4173485;28;20077;-60
2023/06/16 02:47:45;;;;;;;3.05;2.70;;;19.60;73.20;;;;;;4175484;28;20396;-60
2023/06/16 02:49:46;;;;;;;4.22;2.30;;;19.60;73.20;;;;;;4180302;28;20029;-60
2023/06/16 02:51:46;;;;;;;3.15;2.60;;;19.70;74.60;;;;;;4189768;28;20033;-59
2023/06/16 02:53:47;;;;;;;5.35;2.50;;;19.70;74.60;;;;;;4179738;28;20037;-60
2023/06/16 02:55:47;;;;;;;4.32;2.97;;;19.70;73.80;;;;;;4186368;28;20044;-60
2023/06/16 02:57:48;;;;;;;4.05;2.78;;;19.70;75.10;;;;;;4188777;28;20107;-61
2023/06/16 02:59:49;;;;;;;3.55;2.30;;;19.70;75.50;;;;;;4194775;28;20040;-61
2023/06/16 03:01:49;;;;;;;4.22;2.63;;;19.70;76.30;;;;;;4181893;28;20067;-60
2023/06/16 03:03:51;;;;;;;4.68;2.67;;;19.60;75.20;;;;;;4183240;28;20044;-60
2023/06/16 03:05:53;;;;;;;3.58;2.58;;;19.70;75.30;;;;;;4180575;28;20033;-59
2023/06/16 03:07:54;;;;;;;3.20;2.58;;;19.70;75.00;;;;;;4169784;28;20029;-59
2023/06/16 03:09:55;;;;;;;7.20;2.70;;;19.70;75.20;;;;;;4186156;28;20032;-59
2023/06/16 03:11:55;;;;;;;3.67;2.65;;;19.70;75.50;;;;;;4191297;28;20145;-59
2023/06/16 03:13:57;;;;;;;3.22;2.50;;;19.60;75.50;;;;;;4188000;28;20029;-59
2023/06/16 03:15:58;;;;;;;3.95;2.72;;;19.60;77.00;;;;;;4185269;28;20064;-59
2023/06/16 03:17:58;;;;;;;4.03;3.05;;;19.60;76.90;;;;;;4170713;28;20025;-60
2023/06/16 03:19:59;;;;;;;3.90;2.35;;;19.60;77.10;;;;;;4185440;28;20139;-59
2023/06/16 03:22:01;;;;;;;3.42;2.50;;;19.60;77.30;;;;;;4186262;28;20091;-59
2023/06/16 03:24:01;;;;;;;3.65;2.80;;;19.60;76.40;;;;;;4185578;28;20029;-58
2023/06/16 03:26:03;;;;;;;3.15;2.53;;;19.60;77.00;;;;;;4194098;28;20056;-59
2023/06/16 03:28:06;;;;;;;3.63;2.30;;;19.60;77.40;;;;;;4163787;28;20156;-59
2023/06/16 03:30:10;;;;;;;4.93;2.83;;;19.60;76.80;;;;;;4178466;28;20109;-59
2023/06/16 03:32:10;;;;;;;3.85;2.88;;;19.60;76.50;;;;;;4169188;28;20044;-59
2023/06/16 03:34:11;;;;;;;3.20;2.67;;;19.60;77.30;;;;;;4180408;28;20037;-60
2023/06/16 03:36:12;;;;;;;3.45;2.65;;;19.60;77.20;;;;;;4187225;28;20123;-60
2023/06/16 03:38:12;;;;;;;4.18;2.35;;;19.60;77.50;;;;;;4180380;28;20038;-59
2023/06/16 03:40:13;;;;;;;4.40;3.00;;;19.60;77.80;;;;;;4186950;28;20036;-59
2023/06/16 03:42:13;;;;;;;2.67;2.35;;;19.60;78.10;;;;;;4183791;28;20033;-59
2023/06/16 03:44:14;;;;;;;3.58;2.55;;;19.50;78.00;;;;;;4162586;28;20044;-62
2023/06/16 03:46:15;;;;;;;7.50;2.92;;;19.50;77.70;;;;;;4177877;28;20044;-61
2023/06/16 03:48:15;;;;;;;5.97;2.80;;;19.60;78.00;;;;;;4172140;28;20045;-59
2023/06/16 03:50:16;;;;;;;2.80;2.45;;;19.50;77.80;;;;;;4192481;28;20044;-60
2023/06/16 03:52:16;;;;;;;4.40;2.78;;;19.50;77.90;;;;;;4191432;28;20029;-60
2023/06/16 03:54:18;;;;;;;5.15;3.00;;;19.50;78.20;;;;;;4185187;28;20045;-60
2023/06/16 03:56:19;;;;;;;3.83;2.83;;;19.50;78.50;;;;;;4178931;28;20110;-61
2023/06/16 03:58:20;;;;;;;3.60;2.72;;;19.50;79.60;;;;;;4176579;28;20037;-59
2023/06/16 04:00:20;;;;;;;5.47;3.03;;;19.50;78.70;;;;;;4193050;28;20032;-59
2023/06/16 04:02:21;;;;;;;3.70;2.75;;;19.50;78.50;;;;;;4192282;28;20047;-60
2023/06/16 04:04:22;;;;;;;3.42;2.42;;;19.40;78.80;;;;;;4184327;28;20048;-59
2023/06/16 04:06:24;;;;;;;3.53;2.50;;;19.50;78.80;;;;;;4189115;28;20503;-59
2023/06/16 04:08:25;;;;;;;3.50;2.70;;;19.50;79.10;;;;;;4175580;28;20122;-59
2023/06/16 04:10:25;;;;;;;5.05;2.97;;;19.40;79.10;;;;;;4175534;28;20248;-59
2023/06/16 04:12:26;;;;;;;3.35;2.70;;;19.50;79.30;;;;;;4185881;28;20048;-59
2023/06/16 04:14:26;;;;;;;3.40;2.80;;;19.40;79.20;;;;;;4193233;28;20067;-59
2023/06/16 04:16:27;;;;;;;3.95;2.67;;;19.40;79.40;;;;;;4177601;28;20033;-59
2023/06/16 04:18:27;;;;;;;3.38;2.75;;;19.40;79.10;;;;;;4176440;28;20029;-59
2023/06/16 04:20:28;;;;;;;4.40;2.78;;;19.40;78.70;;;;;;4178196;28;20069;-60
2023/06/16 04:22:29;;;;;;;4.85;2.97;;;19.40;78.40;;;;;;4174407;28;20029;-59
2023/06/16 04:24:30;;;;;;;4.75;3.15;;;19.30;78.10;;;;;;4178449;28;20110;-59
2023/06/16 04:26:32;;;;;;;4.47;3.10;;;19.30;77.80;;;;;;4176174;28;20033;-59
2023/06/16 04:28:33;;;;;;;5.47;3.13;;;19.30;78.10;;;;;;4182838;28;20037;-60
2023/06/16 04:30:34;;;;;;;3.33;2.70;;;19.30;78.40;;;;;;4175637;28;20139;-59
2023/06/16 04:32:36;;;;;;;3.38;2.83;;;19.30;78.90;;;;;;4180643;28;20033;-60
2023/06/16 04:34:38;;;;;;;4.77;3.37;;;19.30;79.00;;;;;;4166419;28;20045;-59
2023/06/16 04:36:44;;;;;;;;;;;19.30;78.50;;;;;;4171782;28;20091;-59
2023/06/16 04:38:44;;;;;;;3.63;2.60;;;19.30;78.80;;;;;;4173683;28;19920;-59
2023/06/16 04:40:45;;;;;;;4.57;3.40;;;19.30;78.30;;;;;;4177246;28;20029;-60
2023/06/16 04:42:47;;;;;;;5.80;3.05;;;19.30;78.30;;;;;;4175792;28;20455;-61
2023/06/16 04:44:47;;;;;;;4.47;2.63;;;19.30;78.20;;;;;;4177539;28;20032;-59
2023/06/16 04:46:48;;;;;;;3.55;2.83;;;19.40;78.10;;;;;;4189773;28;20036;-60
2023/06/16 04:48:48;;;;;;;3.78;2.72;;;19.30;78.10;;;;;;4189735;28;20036;-59
2023/06/16 04:50:49;;;;;;;4.38;2.85;;;19.20;78.70;;;;;;4191522;28;20020;-60
2023/06/16 04:52:50;;;;;;;3.20;2.80;;;19.10;79.30;;;;;;4188980;28;20121;-63
2023/06/16 04:54:51;;;;;;;4.45;3.42;;;18.90;79.60;;;;;;4171962;28;20033;-60
2023/06/16 04:56:51;;;;;;;4.68;2.88;;;18.90;80.20;;;;;;4160118;28;20033;-59
2023/06/16 04:58:52;;;;;;;4.18;3.08;;;18.90;80.80;;;;;;4171235;28;20040;-59
2023/06/16 05:00:52;;;;;;;4.85;3.40;;;18.90;81.40;;;;;;4175844;28;20503;-60
2023/06/16 05:02:53;;;;;;;3.97;3.10;;;19.00;81.60;;;;;;4171133;28;20040;-60
2023/06/16 05:04:56;;;;;;;4.10;2.60;;;19.10;81.30;;;;;;4177756;28;20485;-62
2023/06/16 05:06:56;;;;;;;4.03;3.03;;;19.10;81.20;;;;;;4174856;28;20083;-62
2023/06/16 05:08:57;;;;;;;5.72;3.10;;;19.20;81.20;;;;;;4175927;28;20454;-62
2023/06/16 05:10:58;;;;;;;3.63;2.75;;;19.30;81.50;;;;;;4174955;28;20021;-62
2023/06/16 05:12:59;;;;;;;4.45;3.35;;;19.30;82.10;;;;;;4188010;28;20158;-61
2023/06/16 05:15:00;;;;;;;4.88;2.95;;;19.30;82.90;;;;;;4181074;28;20362;-62
2023/06/16 05:17:01;;;;;;;3.55;2.85;;;19.40;82.50;;;;;;4183780;28;20075;-62
2023/06/16 05:19:01;;;;;;;4.13;2.78;;;19.50;82.30;;;;;;4176736;28;20025;-62
2023/06/16 05:21:02;;;;;;;3.58;2.80;;;19.50;82.50;;;;;;4173624;28;20037;-62
2023/06/16 05:23:03;;;;;;;5.22;3.25;;;19.60;82.00;;;;;;4164797;28;20048;-62
2023/06/16 05:25:04;;;;;;;6.18;2.83;;;19.60;81.90;;;;;;4169608;28;20029;-64
2023/06/16 05:27:05;;;;;;;4.38;2.67;;;19.70;82.20;;;;;;4170962;28;20029;-62
2023/06/16 05:29:05;;;;;;;4.28;3.00;;;19.70;82.20;;;;;;4170234;28;20083;-62
2023/06/16 05:31:06;;;;;;;3.35;2.85;;;19.70;82.00;;;;;;4157185;28;21742;-62
2023/06/16 05:33:06;;;;;;;4.72;3.47;;;19.80;81.50;;;;;;4169798;28;20473;-62
2023/06/16 05:35:07;;;;;;;4.43;3.13;;;19.70;81.50;;;;;;4172840;28;20484;-62
2023/06/16 05:37:08;;;;;;;3.92;2.90;;;19.70;82.40;;;;;;4173228;28;20029;-62
2023/06/16 05:39:12;;;;;;;6.18;3.30;;;19.70;81.00;;;;;;4183250;28;20394;-62
2023/06/16 05:41:12;;;;;;;5.70;3.67;;;19.60;80.60;;;;;;4173744;28;20357;-61
2023/06/16 05:43:13;;;;;;;7.55;3.47;;;19.40;80.50;;;;;;4176790;28;20116;-62
2023/06/16 05:45:14;;;;;;;6.20;3.20;;;19.50;79.70;;;;;;4171354;28;20041;-61
2023/06/16 05:47:14;;;;;;;5.38;3.35;;;19.50;80.10;;;;;;4160439;28;20080;-62
2023/06/16 05:49:15;;;;;;;5.32;3.22;;;19.80;79.20;;;;;;4172171;28;20168;-62
2023/06/16 05:51:16;;;;;;;6.38;3.13;;;20.10;79.10;;;;;;4156893;28;20440;-62
2023/06/16 05:53:16;;;;;;;5.75;3.40;;;20.50;78.30;;;;;;4162708;28;20391;-62
2023/06/16 05:55:17;;;;;;;9.77;3.47;;;20.90;75.00;;;;;;4170592;28;20041;-63
2023/06/16 05:57:17;;;;;;;5.75;3.40;;;21.10;74.30;;;;;;4166983;28;20488;-63
2023/06/16 05:59:18;;;;;;;5.03;3.25;;;21.40;74.00;;;;;;4163681;28;20440;-63
2023/06/16 06:01:19;;;;;;;4.53;3.20;;;21.60;73.40;;;;;;4171393;28;20407;-63
2023/06/16 06:03:20;;;;;;;4.57;2.95;;;22.00;73.50;;;;;;4176329;28;20471;-63
2023/06/16 06:05:20;;;;;;;6.32;3.10;;;22.30;72.70;;;;;;4175853;28;20484;-63
2023/06/16 06:07:21;;;;;;;4.35;3.13;;;22.70;71.70;;;;;;4166097;28;20507;-63
2023/06/16 06:09:22;;;;;;;7.05;3.22;;;23.10;70.00;;;;;;4175100;28;20036;-65
2023/06/16 06:11:22;;;;;;;4.25;3.20;;;23.40;69.80;;;;;;4174501;28;20045;-64
2023/06/16 06:13:23;;;;;;;6.63;3.50;;;23.80;69.40;;;;;;4180113;28;20503;-65
2023/06/16 06:15:24;;;;;;;4.00;3.15;;;24.10;69.20;;;;;;4178127;28;20029;-64
2023/06/16 06:17:24;;;;;;;4.90;3.33;;;24.60;68.80;;;;;;4170204;28;20036;-63
2023/06/16 06:19:25;;;;;;;5.25;3.20;;;25.00;69.00;;;;;;4176010;28;20171;-63
2023/06/16 06:21:25;;;;;;;4.03;2.78;;;25.40;64.90;;;;;;4188529;28;20087;-63
2023/06/16 06:23:26;;;;;;;4.68;3.22;;;25.80;65.00;;;;;;4180224;28;20122;-63
2023/06/16 06:25:27;;;;;;;7.78;3.50;;;26.10;61.90;;;;;;4179185;28;20690;-63
2023/06/16 06:27:27;;;;;;;6.80;3.40;;;26.00;59.50;;;;;;4180620;28;20141;-63
2023/06/16 06:29:28;;;;;;;5.18;3.10;;;26.20;62.50;;;;;;4175694;28;20507;-63
2023/06/16 06:31:28;;;;;;;5.22;3.30;;;26.40;60.30;;;;;;4165492;28;20067;-63
2023/06/16 06:33:29;;;;;;;4.43;3.22;;;26.50;59.30;;;;;;4178045;28;20112;-63
2023/06/16 06:35:29;;;;;;;5.95;3.33;;;26.60;59.80;;;;;;4177469;28;20037;-64
2023/06/16 06:37:31;;;;;;;6.47;3.53;;;26.70;58.60;;;;;;4169767;28;20123;-63
2023/06/16 06:39:32;;;;;;;5.40;3.53;;;26.90;61.70;;;;;;4173789;28;20520;-63
2023/06/16 06:41:32;;;;;;;6.43;3.58;;;27.00;58.80;;;;;;4177074;28;20036;-63
2023/06/16 06:43:33;;;;;;;8.40;3.33;;;27.10;62.70;;;;;;4182146;28;20033;-63
2023/06/16 06:45:33;;;;;;;5.15;3.40;;;27.10;60.80;;;;;;4174461;28;20037;-63
2023/06/16 06:47:34;;;;;;;4.85;3.30;;;27.20;59.80;;;;;;4179685;28;20111;-64
2023/06/16 06:49:34;;;;;;;4.70;3.35;;;27.20;57.50;;;;;;4174643;28;20034;-63
2023/06/16 06:51:35;;;;;;;6.68;4.05;;;27.30;58.50;;;;;;4165706;28;20029;-64
2023/06/16 06:53:36;;;;;;;7.80;3.67;;;27.30;59.40;;;;;;4168231;28;20102;-63
2023/06/16 06:55:37;;;;;;;6.97;3.22;;;27.40;61.30;;;;;;4171978;28;20112;-63
2023/06/16 06:57:38;;;;;;;6.68;3.78;;;27.50;59.70;;;;;;4165270;28;20044;-63
2023/06/16 06:59:41;;;;;;;6.22;3.22;;;27.50;59.60;;;;;;4168292;28;20037;-64
2023/06/16 07:01:41;;;;;;;5.25;2.95;;;27.60;60.70;;;;;;4170474;28;20136;-64
2023/06/16 07:03:42;;;;;;;6.30;3.35;;;27.60;57.40;;;;;;4166445;28;20530;-63
2023/06/16 07:05:42;;;;;;;7.05;3.58;;;27.70;59.30;;;;;;4167269;28;20512;-64
2023/06/16 07:07:43;;;;;;;8.05;3.72;;;27.80;57.50;;;;;;4166366;28;22044;-64
2023/06/16 07:09:44;;;;;;;7.03;3.67;;;27.70;55.60;;;;;;4165636;28;20102;-64
2023/06/16 07:11:45;;;;;;;8.73;3.55;;;27.70;52.40;;;;;;4168703;28;20032;-64
2023/06/16 07:13:45;;;;;;;6.28;3.45;;;27.70;53.80;;;;;;4166820;28;20120;-64
2023/06/16 07:15:46;;;;;;;6.78;3.72;;;27.80;54.30;;;;;;4165934;28;20071;-64
2023/06/16 07:17:46;;;;;;;9.15;4.15;;;27.80;54.70;;;;;;4173954;28;20037;-64
2023/06/16 07:19:47;;;;;;;7.72;3.55;;;27.90;56.10;;;;;;4170601;28;20434;-64
2023/06/16 07:21:47;;;;;;;5.13;3.13;;;27.70;49.90;;;;;;4174059;28;20033;-64
2023/06/16 07:23:48;;;;;;;4.28;3.10;;;27.80;51.10;;;;;;4172028;28;20047;-64
2023/06/16 07:25:49;;;;;;;5.25;3.15;;;27.80;51.40;;;;;;4177617;28;20110;-64
2023/06/16 07:27:49;;;;;;;6.00;3.00;;;27.90;52.70;;;;;;4176370;28;20064;-64
2023/06/16 07:29:50;;;;;;;4.90;3.10;;;27.90;52.50;;;;;;4170626;28;20029;-64
2023/06/16 07:31:50;;;;;;;4.75;2.70;;;27.90;53.30;;;;;;4169839;28;20477;-64
2023/06/16 07:33:51;;;;;;;3.65;2.83;;;28.00;52.10;;;;;;4173822;28;20036;-64
2023/06/16 07:35:52;;;;;;;8.88;2.90;;;28.00;48.40;;;;;;4168631;28;20122;-64
2023/06/16 07:37:52;;;;;;;4.20;2.65;;;27.90;49.10;;;;;;4165045;28;20119;-64
2023/06/16 07:39:53;;;;;;;4.07;2.70;;;27.70;46.50;;;;;;4171956;28;20083;-64
2023/06/16 07:41:53;;;;;;;4.50;2.42;;;27.80;47.90;;;;;;4177531;28;20026;-66
2023/06/16 07:43:54;;;;;;;3.58;2.28;;;27.70;48.30;;;;;;4175975;28;20044;-64
2023/06/16 07:45:55;;;;;;;4.38;2.40;;;27.70;49.60;;;;;;4170082;28;20116;-64
2023/06/16 07:47:55;;;;;;;3.85;2.40;;;27.70;49.70;;;;;;4169087;28;20036;-64
2023/06/16 07:49:56;;;;;;;2.85;2.20;;;27.80;50.10;;;;;;4171172;28;20435;-64
2023/06/16 07:51:56;;;;;;;6.57;2.42;;;27.90;51.90;;;;;;4170970;28;20377;-64
2023/06/16 07:53:57;;;;;;;3.55;2.20;;;28.00;52.20;;;;;;4170198;28;20495;-64
2023/06/16 07:55:57;;;;;;;3.67;2.38;;;28.00;50.80;;;;;;4167547;28;20092;-64
2023/06/16 07:57:58;;;;;;;2.72;2.10;;;28.10;49.30;;;;;;4170164;28;20037;-65
2023/06/16 07:59:59;;;;;;;2.65;2.25;;;28.20;51.90;;;;;;4172099;28;20029;-65
2023/06/16 08:02:02;;;;;;;5.50;2.95;;;28.30;52.30;;;;;;4170943;28;20104;-64
2023/06/16 08:04:03;;;;;;;;;;;28.40;51.10;;;;;;4172459;28;20474;-64
2023/06/16 08:06:04;;;;;;;3.47;2.28;;;28.30;47.90;;;;;;4169250;28;19909;-64
2023/06/16 08:08:05;;;;;;;3.67;2.30;;;28.30;48.70;;;;;;4188953;28;20041;-64
2023/06/16 08:10:06;;;;;;;2.90;2.15;;;28.40;49.10;;;;;;4171961;28;20040;-64
2023/06/16 08:12:09;;;;;;;3.05;2.40;;;28.40;49.40;;;;;;4170913;28;20029;-64
2023/06/16 08:14:10;;;;;;;2.83;2.05;;;28.40;51.90;;;;;;4170261;28;20090;-64
2023/06/16 08:16:11;;;;;;;2.53;2.13;;;28.40;49.20;;;;;;4174269;28;20427;-64
2023/06/16 08:18:11;;;;;;;3.30;2.28;;;28.40;48.20;;;;;;4176656;28;20040;-64
2023/06/16 08:20:12;;;;;;;3.03;1.95;;;28.40;51.50;;;;;;4173305;28;20090;-64
2023/06/16 08:22:13;;;;;;;2.60;2.15;;;28.40;49.90;;;;;;4171233;28;20071;-64
2023/06/16 08:24:13;;;;;;;3.30;2.17;;;28.40;49.80;;;;;;4174498;28;20033;-64
2023/06/16 08:26:14;;;;;;;2.63;2.30;;;28.50;48.80;;;;;;4169152;28;20129;-64
2023/06/16 08:28:15;;;;;;;2.88;2.20;;;28.60;48.40;;;;;;4171558;28;20041;-64
2023/06/16 08:30:16;;;;;;;2.97;2.10;;;28.60;51.00;;;;;;4168442;28;20025;-64
2023/06/16 08:32:17;;;;;;;3.03;2.20;;;28.70;51.10;;;;;;4171749;28;20049;-64
2023/06/16 08:34:18;;;;;;;2.50;2.30;;;28.70;49.50;;;;;;4174507;28;20476;-64
2023/06/16 08:36:20;;;;;;;2.70;2.00;;;28.60;47.50;;;;;;4171737;28;20108;-64
2023/06/16 08:38:20;;;;;;;2.78;2.17;;;28.70;50.30;;;;;;4172801;28;20082;-64
2023/06/16 08:40:21;;;;;;;2.70;2.28;;;28.70;48.60;;;;;;4162723;28;20477;-64
2023/06/16 08:42:22;;;;;;;4.13;2.10;;;28.50;48.10;;;;;;4169936;28;20036;-64
2023/06/16 08:44:24;;;;;;;3.08;1.90;;;28.40;47.60;;;;;;4181688;28;20037;-64
2023/06/16 08:46:26;;;;;;;3.13;2.22;;;28.40;48.40;;;;;;4174219;28;20101;-65
2023/06/16 08:48:26;;;;;;;2.85;2.03;;;28.30;48.10;;;;;;4175347;28;20496;-64
2023/06/16 08:50:27;;;;;;;4.03;2.17;;;28.20;47.80;;;;;;4174653;28;20036;-65
2023/06/16 08:52:29;;;;;;;2.30;1.85;;;27.80;47.00;;;;;;4173259;28;20507;-64
2023/06/16 08:54:34;;;;;;;;;;;28.00;49.30;;;;;;4168153;28;20029;-64
2023/06/16 08:56:36;;;;;;;2.13;1.92;;;28.00;48.20;;;;;;4174032;28;20072;-64
2023/06/16 08:58:37;;;;;;;2.00;1.80;;;28.20;52.60;;;;;;4173579;28;20369;-64
2023/06/16 09:00:41;;;;;;;3.67;2.10;;;28.20;48.20;;;;;;4173206;28;20383;-64
2023/06/16 09:02:42;;;;;;;4.45;2.35;;;28.00;47.70;;;;;;4172039;28;20457;-64
2023/06/16 09:04:43;;;;;;;2.70;2.15;;;27.90;48.70;;;;;;4170568;28;20048;-64
2023/06/16 09:06:45;;;;;;;2.70;2.10;;;27.80;49.60;;;;;;4172628;28;20033;-64
2023/06/16 09:08:46;;;;;;;3.05;2.10;;;27.70;51.30;;;;;;4170085;28;20037;-64
2023/06/16 09:10:55;;;;;;;3.63;2.17;;;27.90;52.60;;;;;;4171003;28;20102;-64
2023/06/16 09:13:00;;;;;;;2.60;2.40;;;27.80;48.20;;;;;;4170238;28;20361;-65
2023/06/16 09:15:01;;;;;;;4.00;2.13;;;27.70;47.80;;;;;;4165238;28;20095;-64
2023/06/16 09:17:05;;;;;;;3.05;2.00;;;27.50;49.50;;;;;;4166005;28;20045;-65
2023/06/16 09:19:09;;;;;;;2.67;2.08;;;27.70;48.70;;;;;;4167287;28;20041;-65
2023/06/16 09:21:11;;;;;;;2.05;1.85;;;27.70;50.50;;;;;;4169685;28;20120;-64
2023/06/16 09:23:12;;;;;;;3.23;2.00;;;27.80;50.10;;;;;;4174459;28;20037;-64
2023/06/16 09:25:13;;;;;;;2.17;1.98;;;27.80;50.00;;;;;;4170560;28;20537;-64
2023/06/16 09:27:14;;;;;;;2.67;2.30;;;27.80;51.90;;;;;;4170902;28;20033;-64
2023/06/16 09:29:25;;;;;;;2.83;2.25;;;27.90;49.50;;;;;;4172873;28;20086;-65
2023/06/16 09:31:29;;;;;;;2.75;2.15;;;27.80;49.80;;;;;;4168793;28;20110;-64
2023/06/16 09:33:30;;;;;;;4.05;2.33;;;27.80;49.20;;;;;;4169822;28;20476;-65
2023/06/16 09:35:31;;;;;;;3.58;2.55;;;27.50;49.20;;;;;;4168350;28;20452;-64
2023/06/16 09:37:32;;;;;;;3.13;2.42;;;27.50;50.40;;;;;;4171932;28;20037;-65
2023/06/16 09:39:33;;;;;;;4.72;2.42;;;27.60;55.30;;;;;;4173707;28;20087;-64
2023/06/16 09:41:34;;;;;;;2.80;1.90;;;27.70;52.90;;;;;;4172879;28;20040;-64
2023/06/16 09:43:37;;;;;;;2.88;2.25;;;27.80;52.10;;;;;;4178659;28;20029;-64
2023/06/16 09:45:38;;;;;;;2.17;1.98;;;27.90;53.50;;;;;;4174222;28;20103;-64
2023/06/16 09:47:43;;;;;;;2.63;2.17;;;28.00;51.80;;;;;;4171944;28;20322;-65
2023/06/16 09:49:45;;;;;;;4.18;2.20;;;28.10;52.70;;;;;;4179642;28;20476;-65
2023/06/16 09:51:58;;;;;;;3.05;2.10;;;28.20;51.00;;;;;;4170663;28;20025;-64
2023/06/16 09:53:59;;;;;;;3.60;2.67;;;28.30;55.30;;;;;;4175822;28;20159;-65
2023/06/16 09:56:00;;;;;;;2.97;2.38;;;28.40;50.50;;;;;;4170964;28;20025;-65
2023/06/16 09:58:01;;;;;;;2.78;2.20;;;28.50;53.80;;;;;;4174217;28;20053;-67
2023/06/16 10:00:03;;;;;;;3.45;2.40;;;28.50;53.70;;;;;;4170185;28;20033;-64
2023/06/16 10:02:05;;;;;;;;;;;28.60;53.00;;;;;;4166975;28;20546;-65
2023/06/16 10:04:08;;;;;;;2.92;2.35;;;28.60;50.20;;;;;;4173885;28;19931;-64
2023/06/16 10:06:15;;;;;;;2.63;2.40;;;28.60;50.50;;;;;;4172473;28;20026;-65
2023/06/16 10:08:17;;;;;;;2.97;2.40;;;28.70;53.00;;;;;;4175959;28;20369;-64
2023/06/16 10:10:24;;;;;;;;;;;28.80;54.10;;;;;;4172291;28;20022;-64
2023/06/16 10:12:27;;;;;;;3.60;2.25;;;28.80;52.70;;;;;;4171896;28;20275;-67
2023/06/16 10:14:31;;;;;;;;;;;28.70;51.70;;;;;;4173389;28;20033;-64
2023/06/16 10:16:32;;;;;;;3.47;2.42;;;28.80;54.10;;;;;;4171766;28;20370;-64
2023/06/16 10:18:34;;;;;;;3.47;2.47;;;28.70;55.50;;;;;;4176720;28;20480;-65
2023/06/16 10:20:37;;;;;;;3.92;2.65;;;28.70;54.20;;;;;;4171682;28;20056;-64
2023/06/16 10:22:38;;;;;;;3.17;2.55;;;28.70;54.60;;;;;;4178924;28;20041;-64
2023/06/16 10:24:39;;;;;;;4.43;2.78;;;28.70;56.50;;;;;;4179165;28;20032;-64
2023/06/16 10:26:40;;;;;;;4.47;2.70;;;28.80;55.40;;;;;;4172895;28;20104;-64
2023/06/16 10:28:42;;;;;;;3.53;3.00;;;28.80;54.90;;;;;;4177598;28;20068;-64
2023/06/16 10:30:43;;;;;;;4.27;2.87;;;28.80;55.80;;;;;;4172482;28;20040;-64
2023/06/16 10:32:52;;;;;;;5.70;2.88;;;28.80;54.20;;;;;;4172139;28;20037;-64
2023/06/16 10:34:56;;;;;;;2.63;2.25;;;28.70;56.50;;;;;;4172436;28;20044;-64